createdAt,value
2019-04-20T00:00:38.465Z,37.75
2019-04-20T00:01:40.877Z,38.15
2019-04-20T00:02:44.017Z,38.36
2019-04-20T00:03:49.012Z,38.06
2019-04-20T00:04:51.418Z,38.46
2019-04-20T00:05:53.089Z,38.76
2019-04-20T00:06:54.809Z,38.76
2019-04-20T00:07:57.103Z,38.76
2019-04-20T00:09:07.331Z,38.76
2019-04-20T00:10:10.883Z,38.46
2019-04-20T00:11:23.436Z,38.67
2019-04-20T00:12:33.613Z,38.36
2019-04-20T00:13:38.397Z,38.67
2019-04-20T00:14:36.294Z,38.56
2019-04-20T00:15:38.976Z,38.36
2019-04-20T00:16:39.932Z,38.38
2019-04-20T00:17:45.912Z,38.28
2019-04-20T00:18:52.983Z,38.36
2019-04-20T00:19:56.099Z,38.28
2019-04-20T00:21:03.900Z,38.38
2019-04-20T00:22:09.877Z,38.07
2019-04-20T00:23:14.595Z,38.17
2019-04-20T00:24:24.402Z,38.28
2019-04-20T00:25:32.917Z,37.87
2019-04-20T00:27:00.645Z,37.87
2019-04-20T00:27:55.986Z,37.77
2019-04-20T00:29:00.329Z,37.97
2019-04-20T00:30:10.293Z,37.87
2019-04-20T00:31:18.018Z,38.58
2019-04-20T00:32:12.454Z,38.28
2019-04-20T00:33:24.345Z,38.28
2019-04-20T00:34:24.110Z,38.09
2019-04-20T00:35:23.059Z,38.70
2019-04-20T00:36:24.314Z,38.29
2019-04-20T00:37:25.362Z,38.70
2019-04-20T00:38:33.662Z,38.60
2019-04-20T00:39:34.018Z,38.60
2019-04-20T00:40:35.750Z,38.29
2019-04-20T00:41:43.814Z,38.40
2019-04-20T00:42:48.821Z,38.29
2019-04-20T00:43:51.145Z,38.40
2019-04-20T00:45:00.660Z,38.60
2019-04-20T00:46:03.013Z,38.49
2019-04-20T00:47:15.567Z,38.70
2019-04-20T00:48:22.479Z,39.11
2019-04-20T00:49:30.510Z,38.80
2019-04-20T00:50:41.795Z,39.11
2019-04-20T00:51:44.943Z,38.80
2019-04-20T00:52:55.539Z,38.80
2019-04-20T00:53:48.409Z,38.80
2019-04-20T00:54:49.806Z,38.72
2019-04-20T00:55:50.784Z,39.13
2019-04-20T00:56:53.161Z,38.72
2019-04-20T00:58:10.334Z,38.92
2019-04-20T00:59:18.147Z,38.92
2019-04-20T01:00:28.547Z,38.82
2019-04-20T01:01:37.590Z,38.92
2019-04-20T01:02:38.366Z,39.23
2019-04-20T01:03:44.863Z,39.15
2019-04-20T01:04:54.990Z,38.72
2019-04-20T01:05:58.433Z,39.45
2019-04-20T01:07:02.251Z,39.45
2019-04-20T01:08:00.155Z,39.45
2019-04-20T01:09:03.394Z,39.65
2019-04-20T01:10:05.112Z,39.45
2019-04-20T01:11:06.098Z,39.45
2019-04-20T01:12:13.681Z,39.65
2019-04-20T01:13:18.378Z,39.45
2019-04-20T01:14:36.304Z,39.15
2019-04-20T01:15:46.450Z,39.65
2019-04-20T01:16:47.393Z,39.35
2019-04-20T01:17:46.925Z,39.45
2019-04-20T01:18:48.518Z,39.45
2019-04-20T01:19:52.594Z,39.57
2019-04-20T01:20:53.671Z,39.55
2019-04-20T01:21:59.957Z,39.25
2019-04-20T01:23:07.434Z,39.37
2019-04-20T01:24:08.877Z,39.17
2019-04-20T01:25:18.191Z,39.17
2019-04-20T01:26:20.807Z,39.26
2019-04-20T01:27:32.146Z,39.06
2019-04-20T01:28:48.954Z,38.96
2019-04-20T01:29:43.645Z,39.37
2019-04-20T01:30:50.617Z,39.17
2019-04-20T01:32:01.110Z,38.96
2019-04-20T01:33:08.887Z,39.57
2019-04-20T01:34:08.284Z,39.57
2019-04-20T01:35:24.863Z,39.98
2019-04-20T01:36:33.598Z,39.87
2019-04-20T01:37:34.003Z,39.98
2019-04-20T01:38:44.772Z,39.57
2019-04-20T01:39:39.963Z,39.67
2019-04-20T01:40:42.209Z,39.67
2019-04-20T01:41:43.481Z,39.98
2019-04-20T01:42:44.579Z,40.08
2019-04-20T01:43:46.143Z,39.98
2019-04-20T01:44:50.343Z,39.67
2019-04-20T01:46:03.298Z,39.57
2019-04-20T01:47:02.944Z,39.67
2019-04-20T01:48:07.026Z,39.78
2019-04-20T01:49:13.620Z,39.59
2019-04-20T01:50:21.189Z,40.08
2019-04-20T01:51:27.194Z,39.57
2019-04-20T01:52:38.688Z,39.87
2019-04-20T01:53:56.773Z,40.08
2019-04-20T01:54:57.594Z,39.90
2019-04-20T01:56:01.354Z,39.79
2019-04-20T01:57:04.152Z,39.59
2019-04-20T01:58:17.623Z,39.69
2019-04-20T01:59:20.110Z,39.49
2019-04-20T02:00:21.943Z,39.39
2019-04-20T02:01:25.118Z,39.39
2019-04-20T02:02:26.664Z,39.79
2019-04-20T02:03:34.191Z,40.41
2019-04-20T02:04:40.479Z,39.69
2019-04-20T02:05:42.222Z,39.69
2019-04-20T02:06:53.195Z,40.41
2019-04-20T02:07:55.876Z,39.69
2019-04-20T02:09:03.344Z,40.71
2019-04-20T02:10:08.232Z,40.51
2019-04-20T02:11:18.735Z,40.61
2019-04-20T02:12:23.611Z,40.22
2019-04-20T02:13:26.393Z,40.51
2019-04-20T02:14:40.275Z,40.94
2019-04-20T02:15:42.157Z,40.12
2019-04-20T02:16:47.376Z,40.41
2019-04-20T02:18:03.322Z,40.51
2019-04-20T02:19:10.821Z,40.32
2019-04-20T02:20:23.444Z,40.41
2019-04-20T02:21:26.019Z,40.42
2019-04-20T02:22:35.570Z,40.73
2019-04-20T02:23:35.120Z,40.63
2019-04-20T02:24:29.973Z,40.32
2019-04-20T02:25:31.117Z,40.53
2019-04-20T02:26:32.723Z,40.63
2019-04-20T02:27:38.639Z,40.22
2019-04-20T02:29:07.493Z,40.42
2019-04-20T02:30:13.331Z,40.22
2019-04-20T02:31:32.902Z,39.92
2019-04-20T02:33:43.058Z,40.12
2019-04-20T02:34:49.160Z,39.92
2019-04-20T02:36:04.568Z,40.12
2019-04-20T02:37:14.163Z,40.12
2019-04-20T02:39:28.743Z,40.44
2019-04-20T02:40:27.000Z,40.14
2019-04-20T02:41:36.102Z,40.34
2019-04-20T02:45:57.417Z,41.06
2019-04-20T02:48:23.535Z,41.26
2019-04-20T02:50:41.694Z,40.85
2019-04-20T02:51:52.746Z,41.26
2019-04-20T02:53:11.431Z,40.75
2019-04-20T02:54:12.949Z,41.16
2019-04-20T02:55:10.979Z,41.16
2019-04-20T02:57:33.560Z,41.06
2019-04-20T02:58:32.797Z,41.26
2019-04-20T02:59:54.274Z,41.59
2019-04-20T03:00:33.908Z,41.77
2019-04-20T03:01:36.391Z,41.16
2019-04-20T03:02:41.538Z,41.79
2019-04-20T03:03:37.653Z,41.26
2019-04-20T03:04:44.174Z,41.47
2019-04-20T03:06:00.141Z,41.28
2019-04-20T03:07:05.451Z,41.49
2019-04-20T03:08:13.580Z,41.18
2019-04-20T03:09:25.651Z,41.18
2019-04-20T03:10:24.992Z,40.36
2019-04-20T03:11:49.879Z,41.59
2019-04-20T03:12:44.853Z,41.49
2019-04-20T03:13:53.140Z,40.87
2019-04-20T03:14:52.772Z,41.28
2019-04-20T03:16:06.041Z,40.87
2019-04-20T03:17:15.359Z,40.87
2019-04-20T03:18:13.827Z,41.08
2019-04-20T03:19:17.445Z,41.18
2019-04-20T03:20:27.108Z,40.97
2019-04-20T03:21:37.972Z,41.28
2019-04-20T03:23:07.345Z,41.28
2019-04-20T03:23:52.644Z,41.28
2019-04-20T03:24:59.529Z,41.38
2019-04-20T03:26:09.523Z,41.08
2019-04-20T03:27:07.220Z,41.18
2019-04-20T03:28:16.719Z,41.49
2019-04-20T03:29:17.908Z,41.18
2019-04-20T03:31:15.693Z,41.18
2019-04-20T03:31:54.145Z,41.08
2019-04-20T03:34:13.413Z,41.08
2019-04-20T03:36:12.487Z,41.08
2019-04-20T03:37:15.646Z,41.08
2019-04-20T03:38:24.581Z,41.28
2019-04-20T03:39:23.349Z,41.28
2019-04-20T03:40:24.505Z,41.28
2019-04-20T03:41:25.984Z,40.79
2019-04-20T03:42:24.518Z,40.77
2019-04-20T03:43:24.990Z,40.89
2019-04-20T03:44:27.844Z,40.99
2019-04-20T03:45:39.219Z,41.61
2019-04-20T03:46:45.525Z,41.09
2019-04-20T03:47:58.771Z,40.99
2019-04-20T03:49:04.521Z,41.30
2019-04-20T03:50:18.593Z,40.99
2019-04-20T03:51:30.593Z,40.99
2019-04-20T03:52:27.432Z,40.99
2019-04-20T03:53:34.408Z,40.99
2019-04-20T03:54:34.664Z,40.99
2019-04-20T03:55:44.486Z,41.91
2019-04-20T03:56:54.772Z,42.12
2019-04-20T03:58:03.201Z,42.12
2019-04-20T03:59:04.663Z,41.91
2019-04-20T04:00:16.196Z,42.22
2019-04-20T04:01:27.503Z,42.12
2019-04-20T04:02:42.759Z,42.14
2019-04-20T04:03:45.948Z,41.61
2019-04-20T04:05:43.806Z,41.61
2019-04-20T04:06:42.502Z,41.61
2019-04-20T04:07:46.779Z,41.61
2019-04-20T04:09:02.726Z,41.61
2019-04-20T04:10:10.979Z,41.91
2019-04-20T04:11:16.384Z,42.44
2019-04-20T04:12:17.743Z,42.14
2019-04-20T04:13:14.705Z,41.93
2019-04-20T04:14:15.740Z,41.61
2019-04-20T04:15:16.871Z,41.93
2019-04-20T04:16:21.622Z,41.91
2019-04-20T04:17:28.774Z,42.63
2019-04-20T04:18:35.354Z,41.71
2019-04-20T04:19:39.759Z,42.32
2019-04-20T04:20:49.789Z,42.43
2019-04-20T04:22:05.037Z,42.22
2019-04-20T04:23:10.520Z,42.75
2019-04-20T04:24:17.028Z,42.53
2019-04-20T04:25:24.967Z,42.12
2019-04-20T04:26:34.012Z,42.22
2019-04-20T04:27:49.290Z,42.02
2019-04-20T04:28:51.629Z,42.53
2019-04-20T04:30:01.733Z,42.55
2019-04-20T04:31:12.175Z,42.83
2019-04-20T04:32:32.857Z,42.43
2019-04-20T04:34:34.995Z,42.43
2019-04-20T04:35:32.347Z,42.65
2019-04-20T04:36:50.108Z,42.63
2019-04-20T04:37:53.546Z,42.94
2019-04-20T04:39:05.426Z,42.94
2019-04-20T04:40:16.220Z,42.65
2019-04-20T04:41:18.248Z,42.43
2019-04-20T04:42:22.606Z,42.75
2019-04-20T04:43:25.437Z,42.65
2019-04-20T04:44:27.758Z,42.65
2019-04-20T04:45:23.722Z,42.65
2019-04-20T04:46:26.793Z,42.65
2019-04-20T04:47:28.449Z,42.75
2019-04-20T04:48:35.101Z,42.75
2019-04-20T04:49:40.982Z,42.75
2019-04-20T04:50:48.355Z,42.34
2019-04-20T04:51:58.558Z,42.34
2019-04-20T04:53:04.480Z,42.34
2019-04-20T04:54:12.840Z,42.55
2019-04-20T04:55:22.373Z,42.34
2019-04-20T04:56:18.051Z,42.55
2019-04-20T04:57:20.603Z,42.34
2019-04-20T04:58:21.623Z,42.24
2019-04-20T04:59:23.439Z,42.32
2019-04-20T05:00:28.179Z,42.53
2019-04-20T05:01:33.721Z,42.63
2019-04-20T05:02:41.867Z,42.53
2019-04-20T05:04:12.758Z,42.63
2019-04-20T05:05:10.097Z,42.73
2019-04-20T05:06:12.405Z,42.63
2019-04-20T05:07:16.811Z,42.63
2019-04-20T05:08:15.453Z,42.63
2019-04-20T05:09:17.643Z,42.53
2019-04-20T05:10:20.736Z,42.53
2019-04-20T05:11:21.758Z,42.50
2019-04-20T05:12:26.254Z,42.53
2019-04-20T05:13:37.049Z,42.50
2019-04-20T05:14:47.148Z,42.73
2019-04-20T05:15:57.342Z,42.61
2019-04-20T05:17:04.568Z,42.71
2019-04-20T05:18:16.442Z,42.50
2019-04-20T05:19:24.750Z,42.61
2019-04-20T05:20:22.034Z,42.41
2019-04-20T05:21:30.882Z,42.63
2019-04-20T05:22:42.842Z,42.41
2019-04-20T05:23:37.317Z,42.61
2019-04-20T05:24:51.826Z,42.20
2019-04-20T05:26:05.436Z,42.30
2019-04-20T05:27:07.246Z,42.41
2019-04-20T05:28:09.415Z,42.30
2019-04-20T05:29:07.944Z,42.30
2019-04-20T05:30:05.727Z,42.41
2019-04-20T05:31:08.465Z,42.50
2019-04-20T05:32:16.387Z,42.41
2019-04-20T05:33:27.805Z,42.41
2019-04-20T05:34:45.255Z,42.41
2019-04-20T05:35:51.240Z,42.49
2019-04-20T05:36:56.353Z,42.59
2019-04-20T05:38:06.667Z,42.29
2019-04-20T05:39:16.101Z,42.59
2019-04-20T05:40:16.470Z,42.30
2019-04-20T05:41:21.322Z,42.38
2019-04-20T05:42:32.789Z,42.59
2019-04-20T05:43:31.592Z,42.38
2019-04-20T05:44:44.304Z,42.29
2019-04-20T05:45:41.427Z,42.59
2019-04-20T05:46:59.504Z,42.49
2019-04-20T05:47:58.625Z,42.47
2019-04-20T05:49:11.816Z,42.67
2019-04-20T05:50:05.015Z,42.26
2019-04-20T05:51:25.508Z,42.47
2019-04-20T05:53:35.416Z,42.36
2019-04-20T05:55:43.120Z,42.24
2019-04-20T05:56:50.154Z,42.24
2019-04-20T05:58:06.978Z,42.24
2019-04-20T05:59:09.426Z,42.35
2019-04-20T06:00:15.998Z,42.45
2019-04-20T06:01:20.498Z,42.33
2019-04-20T06:02:27.342Z,42.43
2019-04-20T06:03:29.080Z,42.43
2019-04-20T06:04:54.565Z,42.43
2019-04-20T06:05:54.363Z,42.51
2019-04-20T06:06:52.085Z,42.82
2019-04-20T06:07:53.479Z,42.00
2019-04-20T06:10:14.865Z,42.00
2019-04-20T06:11:23.797Z,42.00
2019-04-20T06:12:28.570Z,42.08
2019-04-20T06:13:22.041Z,42.59
2019-04-20T06:14:28.600Z,42.49
2019-04-20T06:15:43.279Z,42.08
2019-04-20T06:16:52.745Z,42.47
2019-04-20T06:17:55.401Z,41.86
2019-04-20T06:19:10.058Z,42.27
2019-04-20T06:20:13.981Z,41.43
2019-04-20T06:21:26.609Z,41.43
2019-04-20T06:22:28.518Z,41.74
2019-04-20T06:23:34.308Z,41.53
2019-04-20T06:24:39.891Z,41.92
2019-04-20T06:25:44.037Z,41.72
2019-04-20T06:26:56.035Z,41.61
2019-04-20T06:27:52.424Z,41.92
2019-04-20T06:28:51.879Z,41.61
2019-04-20T06:30:00.769Z,41.72
2019-04-20T06:31:16.070Z,41.60
2019-04-20T06:32:28.837Z,40.88
2019-04-20T06:33:38.657Z,41.39
2019-04-20T06:35:54.615Z,41.58
2019-04-20T06:36:47.200Z,41.88
2019-04-20T06:38:03.190Z,41.58
2019-04-20T06:39:01.979Z,40.86
2019-04-20T06:40:22.097Z,40.75
2019-04-20T06:41:21.574Z,41.05
2019-04-20T06:42:19.306Z,41.05
2019-04-20T06:43:30.425Z,40.72
2019-04-20T06:44:31.927Z,41.24
2019-04-20T06:45:49.575Z,40.91
2019-04-20T06:46:47.177Z,40.50
2019-04-20T06:47:51.519Z,41.03
2019-04-20T06:49:04.097Z,40.12
2019-04-20T06:50:01.481Z,40.20
2019-04-20T06:51:04.652Z,40.20
2019-04-20T06:52:23.657Z,41.60
2019-04-20T06:53:25.643Z,40.99
2019-04-20T06:54:15.864Z,40.87
2019-04-20T06:55:38.266Z,40.87
2019-04-20T06:56:45.512Z,40.56
2019-04-20T06:57:44.981Z,39.84
2019-04-20T06:59:02.222Z,39.84
2019-04-20T06:59:59.629Z,40.12
2019-04-20T07:01:05.612Z,40.22
2019-04-20T07:02:22.263Z,40.02
2019-04-20T07:03:30.564Z,40.31
2019-04-20T07:05:31.756Z,40.09
2019-04-20T07:06:50.855Z,40.09
2019-04-20T07:07:50.493Z,39.06
2019-04-20T07:11:04.339Z,39.36
2019-04-20T07:12:09.316Z,39.54
2019-04-20T07:13:11.538Z,39.64
2019-04-20T07:14:08.355Z,39.52
2019-04-20T07:15:23.165Z,38.70
2019-04-20T07:16:34.919Z,39.10
2019-04-20T07:18:53.191Z,38.98
2019-04-20T07:19:50.217Z,38.68
2019-04-20T07:21:01.854Z,38.76
2019-04-20T07:22:22.718Z,38.26
2019-04-20T07:23:21.378Z,37.93
2019-04-20T07:24:25.165Z,38.34
2019-04-20T07:25:32.076Z,37.62
2019-04-20T07:26:37.330Z,38.12
2019-04-20T07:27:41.480Z,37.90
2019-04-20T07:28:55.879Z,38.30
2019-04-20T07:30:10.677Z,37.80
2019-04-20T07:31:01.686Z,36.77
2019-04-20T07:32:01.760Z,37.18
2019-04-20T07:33:15.639Z,37.16
2019-04-20T07:34:20.362Z,37.36
2019-04-20T07:35:26.346Z,36.94
2019-04-20T07:36:39.939Z,37.04
2019-04-20T07:38:50.034Z,36.42
2019-04-20T07:39:53.915Z,36.32
2019-04-20T07:40:56.201Z,36.50
2019-04-20T07:42:08.499Z,36.50
2019-04-20T07:43:07.897Z,36.18
2019-04-20T07:44:18.328Z,36.38
2019-04-20T07:46:41.218Z,35.86
2019-04-20T07:47:40.611Z,35.86
2019-04-20T07:48:42.226Z,36.07
2019-04-20T07:49:45.847Z,35.35
2019-04-20T07:50:51.182Z,35.44
2019-04-20T07:51:45.544Z,35.55
2019-04-20T07:53:07.473Z,35.35
2019-04-20T07:54:23.222Z,35.43
2019-04-20T07:56:30.550Z,35.33
2019-04-20T07:57:32.971Z,34.91
2019-04-20T07:58:30.511Z,34.91
2019-04-20T07:59:39.716Z,34.89
2019-04-20T08:01:05.949Z,35.60
2019-04-20T08:02:10.526Z,34.80
2019-04-20T08:03:11.696Z,34.48
2019-04-20T08:04:13.004Z,34.58
2019-04-20T08:05:10.742Z,34.58
2019-04-20T08:06:14.304Z,34.76
2019-04-20T08:07:14.502Z,34.66
2019-04-20T08:08:32.868Z,35.26
2019-04-20T08:09:34.165Z,35.05
2019-04-20T08:10:47.499Z,34.16
2019-04-20T08:12:03.243Z,34.44
2019-04-20T08:13:11.088Z,34.14
2019-04-20T08:14:12.153Z,34.34
2019-04-20T08:15:27.089Z,34.55
2019-04-20T08:16:33.248Z,34.64
2019-04-20T08:17:46.757Z,34.43
2019-04-20T08:18:40.014Z,34.14
2019-04-20T08:19:41.066Z,34.05
2019-04-20T08:20:45.059Z,33.73
2019-04-20T08:21:51.994Z,33.62
2019-04-20T08:22:58.828Z,33.43
2019-04-20T08:24:07.472Z,33.51
2019-04-20T08:25:08.918Z,33.01
2019-04-20T08:26:09.017Z,32.81
2019-04-20T08:27:09.359Z,33.00
2019-04-20T08:28:20.832Z,33.39
2019-04-20T08:29:36.639Z,32.40
2019-04-20T08:30:41.315Z,32.40
2019-04-20T08:31:44.916Z,32.50
2019-04-20T08:32:53.940Z,32.70
2019-04-20T08:34:15.194Z,32.28
2019-04-20T08:35:15.440Z,32.58
2019-04-20T08:36:22.811Z,32.46
2019-04-20T08:37:22.261Z,32.67
2019-04-20T08:39:07.105Z,32.86
2019-04-20T08:39:51.142Z,32.95
2019-04-20T08:40:43.579Z,32.26
2019-04-20T08:41:58.948Z,32.06
2019-04-20T08:43:03.331Z,32.15
2019-04-20T08:44:13.280Z,32.45
2019-04-20T08:45:33.159Z,32.25
2019-04-20T08:46:12.154Z,31.95
2019-04-20T08:47:33.646Z,31.73
2019-04-20T08:48:34.532Z,31.73
2019-04-20T08:50:00.128Z,31.34
2019-04-20T08:50:45.121Z,31.63
2019-04-20T08:51:55.754Z,31.73
2019-04-20T08:53:12.795Z,31.52
2019-04-20T08:53:57.653Z,31.72
2019-04-20T08:55:04.958Z,32.32
2019-04-20T08:56:09.865Z,31.51
2019-04-20T08:57:04.539Z,32.00
2019-04-20T08:58:05.404Z,31.60
2019-04-20T08:59:06.745Z,31.40
2019-04-20T09:00:09.023Z,32.10
2019-04-20T09:01:14.347Z,31.39
2019-04-20T09:02:18.537Z,30.99
2019-04-20T09:03:25.395Z,31.59
2019-04-20T09:04:38.370Z,31.69
2019-04-20T09:05:42.456Z,31.49
2019-04-20T09:06:52.153Z,31.48
2019-04-20T09:07:56.575Z,30.58
2019-04-20T09:09:19.488Z,30.28
2019-04-20T09:10:25.680Z,30.58
2019-04-20T09:11:21.909Z,30.68
2019-04-20T09:12:26.751Z,30.68
2019-04-20T09:13:26.903Z,30.08
2019-04-20T09:14:25.622Z,29.77
2019-04-20T09:15:27.861Z,29.97
2019-04-20T09:16:34.819Z,29.97
2019-04-20T09:17:45.205Z,30.46
2019-04-20T09:18:50.257Z,30.45
2019-04-20T09:19:55.859Z,29.75
2019-04-20T09:21:01.283Z,29.95
2019-04-20T09:22:12.156Z,30.05
2019-04-20T09:23:22.281Z,29.95
2019-04-20T09:24:36.409Z,29.84
2019-04-20T09:25:54.552Z,30.04
2019-04-20T09:26:43.193Z,29.84
2019-04-20T09:27:40.768Z,29.63
2019-04-20T09:28:55.687Z,28.93
2019-04-20T09:30:04.595Z,30.02
2019-04-20T09:31:09.558Z,29.03
2019-04-20T09:32:19.438Z,28.73
2019-04-20T09:33:22.584Z,29.61
2019-04-20T09:34:25.932Z,29.72
2019-04-20T09:35:39.030Z,29.82
2019-04-20T09:36:38.628Z,29.82
2019-04-20T09:37:51.126Z,29.03
2019-04-20T09:38:47.800Z,29.52
2019-04-20T09:40:02.425Z,28.91
2019-04-20T09:41:09.150Z,29.41
2019-04-20T09:42:01.522Z,28.91
2019-04-20T09:43:04.478Z,28.91
2019-04-20T09:44:05.031Z,29.30
2019-04-20T09:45:06.569Z,29.00
2019-04-20T09:46:10.153Z,29.20
2019-04-20T09:47:12.329Z,28.80
2019-04-20T09:48:19.927Z,28.79
2019-04-20T09:49:33.111Z,28.59
2019-04-20T09:50:44.957Z,28.69
2019-04-20T09:51:50.017Z,28.59
2019-04-20T09:52:57.125Z,28.18
2019-04-20T09:53:54.853Z,28.59
2019-04-20T09:55:06.968Z,28.18
2019-04-20T09:56:18.231Z,28.38
2019-04-20T09:57:25.385Z,28.28
2019-04-20T09:58:21.265Z,28.47
2019-04-20T09:59:40.086Z,27.87
2019-04-20T10:00:45.009Z,27.58
2019-04-20T10:01:39.539Z,28.18
2019-04-20T10:02:39.286Z,27.67
2019-04-20T10:03:40.859Z,28.36
2019-04-20T10:04:41.796Z,27.97
2019-04-20T10:05:43.402Z,28.17
2019-04-20T10:06:43.918Z,28.27
2019-04-20T10:07:48.404Z,28.17
2019-04-20T10:08:55.918Z,28.35
2019-04-20T10:09:57.854Z,27.16
2019-04-20T10:10:59.472Z,27.06
2019-04-20T10:11:59.994Z,27.34
2019-04-20T10:13:00.594Z,27.04
2019-04-20T10:14:01.994Z,27.25
2019-04-20T10:15:11.666Z,27.55
2019-04-20T10:16:08.998Z,27.55
2019-04-20T10:17:09.731Z,27.55
2019-04-20T10:18:10.266Z,27.74
2019-04-20T10:19:11.988Z,27.74
2019-04-20T10:20:20.827Z,27.73
2019-04-20T10:21:20.115Z,27.53
2019-04-20T10:22:20.607Z,27.73
2019-04-20T10:23:21.093Z,27.63
2019-04-20T10:24:21.543Z,27.53
2019-04-20T10:25:22.567Z,27.51
2019-04-20T10:26:23.071Z,27.72
2019-04-20T10:27:24.285Z,26.74
2019-04-20T10:28:25.625Z,26.62
2019-04-20T10:29:26.266Z,27.02
2019-04-20T10:30:26.727Z,26.62
2019-04-20T10:31:28.574Z,26.53
2019-04-20T10:32:36.287Z,26.43
2019-04-20T10:33:35.572Z,26.82
2019-04-20T10:34:36.798Z,26.42
2019-04-20T10:35:37.327Z,26.51
2019-04-20T10:36:37.778Z,26.21
2019-04-20T10:37:39.677Z,26.21
2019-04-20T10:38:40.284Z,26.51
2019-04-20T10:39:40.735Z,26.32
2019-04-20T10:40:51.103Z,26.42
2019-04-20T10:41:52.586Z,26.13
2019-04-20T10:42:55.174Z,25.13
2019-04-20T10:43:58.661Z,25.72
2019-04-20T10:45:00.659Z,25.72
2019-04-20T10:46:02.852Z,25.63
2019-04-20T10:47:04.938Z,25.43
2019-04-20T10:48:05.524Z,25.82
2019-04-20T10:49:07.652Z,25.72
2019-04-20T10:50:09.258Z,25.81
2019-04-20T10:51:10.679Z,25.42
2019-04-20T10:52:11.676Z,25.71
2019-04-20T10:53:12.180Z,25.71
2019-04-20T10:54:12.663Z,25.60
2019-04-20T10:55:14.566Z,25.40
2019-04-20T10:56:15.840Z,25.50
2019-04-20T10:57:17.449Z,25.98
2019-04-20T10:58:18.015Z,25.19
2019-04-20T10:59:19.348Z,25.39
2019-04-20T11:00:19.879Z,24.60
2019-04-20T11:01:20.337Z,24.50
2019-04-20T11:02:21.568Z,24.40
2019-04-20T11:03:22.783Z,24.69
2019-04-20T11:04:23.318Z,24.60
2019-04-20T11:05:24.491Z,24.79
2019-04-20T11:06:24.999Z,24.98
2019-04-20T11:07:26.437Z,24.68
2019-04-20T11:08:26.993Z,24.97
2019-04-20T11:09:28.944Z,24.67
2019-04-20T11:10:46.161Z,24.19
2019-04-20T11:11:37.081Z,23.80
2019-04-20T11:12:38.138Z,23.50
2019-04-20T11:13:39.384Z,24.09
2019-04-20T11:14:43.473Z,23.40
2019-04-20T11:15:44.700Z,23.70
2019-04-20T11:16:46.562Z,23.49
2019-04-20T11:17:47.189Z,23.69
2019-04-20T11:18:47.718Z,24.28
2019-04-20T11:19:49.420Z,23.59
2019-04-20T11:20:51.109Z,22.99
2019-04-20T11:21:52.370Z,23.08
2019-04-20T11:22:53.006Z,23.38
2019-04-20T11:23:54.256Z,22.78
2019-04-20T11:24:54.857Z,23.18
2019-04-20T11:25:55.983Z,23.18
2019-04-20T11:26:56.632Z,23.37
2019-04-20T11:27:58.430Z,23.17
2019-04-20T11:29:00.014Z,23.37
2019-04-20T11:30:00.488Z,22.67
2019-04-20T11:31:01.896Z,22.67
2019-04-20T11:32:03.120Z,22.67
2019-04-20T11:33:04.408Z,22.86
2019-04-20T11:34:05.998Z,23.06
2019-04-20T11:35:14.129Z,22.75
2019-04-20T11:36:13.037Z,22.66
2019-04-20T11:37:13.596Z,22.85
2019-04-20T11:38:17.004Z,23.14
2019-04-20T11:39:18.839Z,23.04
2019-04-20T11:40:19.327Z,22.64
2019-04-20T11:41:25.593Z,23.04
2019-04-20T11:42:26.239Z,22.93
2019-04-20T11:43:26.683Z,23.03
2019-04-20T11:44:30.293Z,23.13
2019-04-20T11:45:33.018Z,22.72
2019-04-20T11:46:34.556Z,21.65
2019-04-20T11:47:35.659Z,22.05
2019-04-20T11:48:37.216Z,21.64
2019-04-20T11:49:37.901Z,21.65
2019-04-20T11:50:39.771Z,21.54
2019-04-20T11:51:41.432Z,21.84
2019-04-20T11:52:45.877Z,21.05
2019-04-20T11:53:48.471Z,21.25
2019-04-20T11:54:48.952Z,20.94
2019-04-20T11:55:49.492Z,20.94
2019-04-20T11:56:51.135Z,20.75
2019-04-20T11:57:51.698Z,21.33
2019-04-20T11:58:53.138Z,21.31
2019-04-20T11:59:54.918Z,20.82
2019-04-20T12:01:02.941Z,21.39
2019-04-20T12:02:04.666Z,20.76
2019-04-20T12:03:16.089Z,19.17
2019-04-20T12:04:26.158Z,16.04
2019-04-20T12:05:31.587Z,15.00
2019-04-20T12:06:26.582Z,13.98
2019-04-20T12:07:27.058Z,12.41
2019-04-20T12:08:27.595Z,11.80
2019-04-20T12:09:29.240Z,11.30
2019-04-20T12:10:31.391Z,10.42
2019-04-20T12:11:46.793Z,10.30
2019-04-20T12:12:42.471Z,10.10
2019-04-20T12:13:45.131Z,9.99
2019-04-20T12:14:46.408Z,9.78
2019-04-20T12:15:47.702Z,10.06
2019-04-20T12:16:48.335Z,10.52
2019-04-20T12:17:49.511Z,10.32
2019-04-20T12:18:50.455Z,9.94
2019-04-20T12:19:53.001Z,9.08
2019-04-20T12:20:54.798Z,9.07
2019-04-20T12:21:55.811Z,8.33
2019-04-20T12:22:56.394Z,8.80
2019-04-20T12:23:58.243Z,8.33
2019-04-20T12:25:00.329Z,8.51
2019-04-20T12:26:02.031Z,8.31
2019-04-20T12:27:02.940Z,8.03
2019-04-20T12:28:03.930Z,8.86
2019-04-20T12:29:05.854Z,8.29
2019-04-20T12:30:07.785Z,8.29
2019-04-20T12:31:13.033Z,8.66
2019-04-20T12:32:14.858Z,8.47
2019-04-20T12:33:15.598Z,8.75
2019-04-20T12:34:16.343Z,8.65
2019-04-20T12:35:18.105Z,8.65
2019-04-20T12:36:18.629Z,8.27
2019-04-20T12:37:19.077Z,7.53
2019-04-20T12:38:19.596Z,7.81
2019-04-20T12:39:22.282Z,7.44
2019-04-20T12:40:23.973Z,7.62
2019-04-20T12:41:34.479Z,7.06
2019-04-20T12:42:30.981Z,7.34
2019-04-20T12:43:31.890Z,7.42
2019-04-20T12:44:32.505Z,7.33
2019-04-20T12:45:33.544Z,7.79
2019-04-20T12:46:34.094Z,6.41
2019-04-20T12:47:35.395Z,6.23
2019-04-20T12:48:36.063Z,6.23
2019-04-20T12:49:37.790Z,6.51
2019-04-20T12:50:39.576Z,6.51
2019-04-20T12:51:48.693Z,6.23
2019-04-20T12:52:46.600Z,7.06
2019-04-20T12:53:47.136Z,7.06
2019-04-20T12:54:48.018Z,6.96
2019-04-20T12:55:48.533Z,7.06
2019-04-20T12:56:49.030Z,7.15
2019-04-20T12:57:50.316Z,7.05
2019-04-20T12:58:51.666Z,7.14
2019-04-20T12:59:52.434Z,6.87
2019-04-20T13:00:54.457Z,7.05
2019-04-20T13:01:55.393Z,7.05
2019-04-20T13:02:56.026Z,7.14
2019-04-20T13:03:57.397Z,6.77
2019-04-20T13:04:59.434Z,6.49
2019-04-20T13:05:59.998Z,6.49
2019-04-20T13:07:01.772Z,6.49
2019-04-20T13:08:04.139Z,6.68
2019-04-20T13:09:05.719Z,6.40
2019-04-20T13:10:07.585Z,6.49
2019-04-20T13:11:08.718Z,6.49
2019-04-20T13:12:12.008Z,6.67
2019-04-20T13:13:14.459Z,6.39
2019-04-20T13:14:14.948Z,6.67
2019-04-20T13:15:16.115Z,6.21
2019-04-20T13:16:16.627Z,6.76
2019-04-20T13:17:17.113Z,6.39
2019-04-20T13:18:17.568Z,6.67
2019-04-20T13:19:19.246Z,6.57
2019-04-20T13:20:19.811Z,6.95
2019-04-20T13:21:21.049Z,6.21
2019-04-20T13:22:21.560Z,6.21
2019-04-20T13:23:22.552Z,6.49
2019-04-20T13:24:23.159Z,6.21
2019-04-20T13:25:23.664Z,6.12
2019-04-20T13:26:25.077Z,6.49
2019-04-20T13:27:26.956Z,5.56
2019-04-20T13:28:28.704Z,5.65
2019-04-20T13:29:29.422Z,5.93
2019-04-20T13:30:30.101Z,5.75
2019-04-20T13:31:31.731Z,6.02
2019-04-20T13:32:32.266Z,5.75
2019-04-20T13:33:33.544Z,5.75
2019-04-20T13:34:34.087Z,5.65
2019-04-20T13:35:36.395Z,5.75
2019-04-20T13:36:38.106Z,5.93
2019-04-20T13:37:40.433Z,6.03
2019-04-20T13:38:42.235Z,6.22
2019-04-20T13:39:42.808Z,6.22
2019-04-20T13:40:43.974Z,5.85
2019-04-20T13:41:56.142Z,6.23
2019-04-20T13:42:51.902Z,5.67
2019-04-20T13:43:54.825Z,5.85
2019-04-20T13:44:59.056Z,5.85
2019-04-20T13:46:00.779Z,6.04
2019-04-20T13:47:01.371Z,6.13
2019-04-20T13:48:04.175Z,5.94
2019-04-20T13:49:04.999Z,5.66
2019-04-20T13:50:05.609Z,5.76
2019-04-20T13:51:06.050Z,5.85
2019-04-20T13:52:06.798Z,5.94
2019-04-20T13:53:07.457Z,6.03
2019-04-20T13:54:14.979Z,5.66
2019-04-20T13:55:14.864Z,6.04
2019-04-20T13:56:16.176Z,6.13
2019-04-20T13:57:17.526Z,5.47
2019-04-20T13:58:18.305Z,5.76
2019-04-20T13:59:19.620Z,5.66
2019-04-20T14:00:20.196Z,6.04
2019-04-20T14:01:21.000Z,5.76
2019-04-20T14:02:22.687Z,6.13
2019-04-20T14:03:23.227Z,5.48
2019-04-20T14:04:26.604Z,5.66
2019-04-20T14:05:27.169Z,6.13
2019-04-20T14:06:27.699Z,5.76
2019-04-20T14:07:29.240Z,6.13
2019-04-20T14:08:29.842Z,5.95
2019-04-20T14:09:30.303Z,5.86
2019-04-20T14:10:31.269Z,5.30
2019-04-20T14:11:31.759Z,5.96
2019-04-20T14:12:37.074Z,5.49
2019-04-20T14:13:45.108Z,5.31
2019-04-20T14:14:45.195Z,5.59
2019-04-20T14:15:47.021Z,5.40
2019-04-20T14:16:47.598Z,5.69
2019-04-20T14:17:51.088Z,5.41
2019-04-20T14:18:51.576Z,5.22
2019-04-20T14:19:53.045Z,5.32
2019-04-20T14:20:54.124Z,5.59
2019-04-20T14:21:54.717Z,5.41